createdAt,value
2018-12-15T00:00:22.812Z,97261.73
2018-12-15T00:02:50.902Z,97261.42
2018-12-15T00:05:18.472Z,97260.30
2018-12-15T00:07:46.128Z,97260.77
2018-12-15T00:10:13.698Z,97265.46
2018-12-15T00:12:42.302Z,97263.95
2018-12-15T00:15:11.332Z,97267.16
2018-12-15T00:17:38.879Z,97268.64
2018-12-15T00:20:06.682Z,97265.91
2018-12-15T00:22:34.349Z,97265.21
2018-12-15T00:25:01.913Z,97269.81
2018-12-15T00:27:29.589Z,97269.77
2018-12-15T00:29:57.208Z,97263.81
2018-12-15T00:32:25.843Z,97271.47
2018-12-15T00:34:53.390Z,97271.83
2018-12-15T00:37:22.400Z,97270.87
2018-12-15T00:39:50.004Z,97274.66
2018-12-15T00:42:17.566Z,97270.87
2018-12-15T00:45:12.521Z,97269.47
2018-12-15T00:48:13.578Z,97281.13
2018-12-15T00:50:43.937Z,97286.97
2018-12-15T00:53:11.503Z,97287.87
2018-12-15T00:55:39.040Z,97288.19
2018-12-15T00:58:06.596Z,97287.87
2018-12-15T01:00:34.183Z,97294.78
2018-12-15T01:03:01.744Z,97286.19
2018-12-15T01:05:30.334Z,97291.88
2018-12-15T01:07:57.931Z,97293.16
2018-12-15T01:10:25.469Z,97294.27
2018-12-15T01:12:53.239Z,97303.86
2018-12-15T01:15:26.406Z,97297.36
2018-12-15T01:17:53.957Z,97299.45
2018-12-15T01:20:21.504Z,97296.95
2018-12-15T01:22:49.060Z,97305.78
2018-12-15T01:25:16.950Z,97304.22
2018-12-15T01:27:44.563Z,97300.92
2018-12-15T01:30:13.014Z,97298.44
2018-12-15T01:32:41.758Z,97295.52
2018-12-15T01:35:09.374Z,97305.84
2018-12-15T01:37:37.398Z,97308.00
2018-12-15T01:40:05.277Z,97310.48
2018-12-15T01:42:32.836Z,97322.25
2018-12-15T01:45:01.424Z,97319.42
2018-12-15T01:47:29.043Z,97321.71
2018-12-15T01:49:57.207Z,97322.67
2018-12-15T01:52:24.794Z,97329.89
2018-12-15T01:54:52.449Z,97323.98
2018-12-15T01:57:20.109Z,97324.77
2018-12-15T01:59:47.662Z,97322.71
2018-12-15T02:02:15.200Z,97328.77
2018-12-15T02:04:43.207Z,97327.00
2018-12-15T02:07:10.768Z,97324.06
2018-12-15T02:09:38.527Z,97328.91
2018-12-15T02:12:06.070Z,97325.54
2018-12-15T02:14:33.638Z,97328.56
2018-12-15T02:17:01.254Z,97320.63
2018-12-15T02:19:28.845Z,97327.85
2018-12-15T02:21:57.134Z,97324.72
2018-12-15T02:24:25.574Z,97325.47
2018-12-15T02:26:53.160Z,97327.25
2018-12-15T02:29:20.903Z,97328.16
2018-12-15T02:31:48.466Z,97326.48
2018-12-15T02:34:16.012Z,97331.34
2018-12-15T02:36:43.747Z,97334.09
2018-12-15T02:39:11.468Z,97331.31
2018-12-15T02:41:39.042Z,97335.41
2018-12-15T02:44:06.612Z,97333.84
2018-12-15T02:46:34.186Z,97329.19
2018-12-15T02:49:02.472Z,97328.02
2018-12-15T02:51:30.055Z,97325.11
2018-12-15T02:53:57.632Z,97325.58
2018-12-15T02:56:25.225Z,97331.67
2018-12-15T02:58:52.797Z,97323.52
2018-12-15T03:01:20.378Z,97326.16
2018-12-15T03:03:48.410Z,97327.30
2018-12-15T03:06:16.083Z,97325.54
2018-12-15T03:08:43.901Z,97335.50
2018-12-15T03:11:11.508Z,97331.20
2018-12-15T03:13:39.087Z,97329.62
2018-12-15T03:16:06.752Z,97334.23
2018-12-15T03:18:34.349Z,97325.97
2018-12-15T03:21:01.914Z,97337.65
2018-12-15T03:23:29.508Z,97340.02
2018-12-15T03:25:57.072Z,97346.47
2018-12-15T03:28:25.443Z,97347.52
2018-12-15T03:30:53.791Z,97345.11
2018-12-15T03:33:21.384Z,97344.95
2018-12-15T03:35:49.488Z,97348.31
2018-12-15T03:38:17.051Z,97347.48
2018-12-15T03:40:44.626Z,97355.77
2018-12-15T03:43:12.421Z,97356.87
2018-12-15T03:45:40.003Z,97354.67
2018-12-15T03:48:07.698Z,97355.12
2018-12-15T03:50:35.548Z,97361.43
2018-12-15T03:53:03.210Z,97354.67
2018-12-15T03:55:30.936Z,97355.27
2018-12-15T03:57:58.653Z,97361.63
2018-12-15T04:00:26.403Z,97364.63
2018-12-15T04:02:54.003Z,97362.34
2018-12-15T04:05:22.645Z,97362.59
2018-12-15T04:07:50.921Z,97360.59
2018-12-15T04:10:19.794Z,97358.14
2018-12-15T04:12:47.435Z,97358.25
2018-12-15T04:15:14.997Z,97360.56
2018-12-15T04:17:42.636Z,97362.67
2018-12-15T04:20:10.251Z,97363.91
2018-12-15T04:22:38.098Z,97369.21
2018-12-15T04:25:05.963Z,97367.61
2018-12-15T04:27:33.828Z,97372.61
2018-12-15T04:30:01.419Z,97373.92
2018-12-15T04:32:28.981Z,97376.75
2018-12-15T04:34:57.060Z,97380.33
2018-12-15T04:37:25.489Z,97375.08
2018-12-15T04:39:53.071Z,97377.36
2018-12-15T04:42:20.645Z,97387.98
2018-12-15T04:44:49.457Z,97387.02
2018-12-15T04:47:17.286Z,97388.58
2018-12-15T04:49:44.846Z,97381.52
2018-12-15T04:52:12.417Z,97379.59
2018-12-15T04:54:39.997Z,97383.31
2018-12-15T04:57:07.565Z,97387.72
2018-12-15T04:59:35.130Z,97380.91
2018-12-15T05:02:02.736Z,97379.41
2018-12-15T05:04:30.306Z,97382.92
2018-12-15T05:06:58.493Z,97379.86
2018-12-15T05:09:26.058Z,97386.77
2018-12-15T05:11:53.633Z,97375.72
2018-12-15T05:14:21.207Z,97373.34
2018-12-15T05:16:49.870Z,97381.27
2018-12-15T05:19:18.378Z,97378.17
2018-12-15T05:21:46.179Z,97379.74
2018-12-15T05:24:13.757Z,97380.33
2018-12-15T05:26:41.327Z,97381.95
2018-12-15T05:29:08.895Z,97381.09
2018-12-15T05:31:36.484Z,97376.61
2018-12-15T05:34:04.589Z,97378.69
2018-12-15T05:36:32.191Z,97378.58
2018-12-15T05:39:00.476Z,97379.97
2018-12-15T05:41:29.089Z,97377.14
2018-12-15T05:43:58.116Z,97377.49
2018-12-15T05:46:25.690Z,97372.28
2018-12-15T05:48:53.267Z,97375.52
2018-12-15T05:51:20.842Z,97373.55
2018-12-15T05:53:48.474Z,97372.80
2018-12-15T05:56:16.410Z,97371.73
2018-12-15T05:58:44.097Z,97366.38
2018-12-15T06:01:11.676Z,97367.94
2018-12-15T06:03:39.259Z,97373.75
2018-12-15T06:06:07.370Z,97372.19
2018-12-15T06:08:34.930Z,97365.06
2018-12-15T06:11:02.501Z,97371.73
2018-12-15T06:13:30.077Z,97377.49
2018-12-15T06:15:58.331Z,97377.65
2018-12-15T06:18:31.473Z,97377.73
2018-12-15T06:20:55.498Z,97373.86
2018-12-15T06:23:24.150Z,97369.61
2018-12-15T06:25:52.516Z,97365.92
2018-12-15T06:28:21.428Z,97371.58
2018-12-15T06:30:49.306Z,97376.14
2018-12-15T06:33:17.026Z,97374.11
2018-12-15T06:35:45.734Z,97385.37
2018-12-15T06:38:14.323Z,97376.64
2018-12-15T06:40:41.942Z,97378.77
2018-12-15T06:43:09.501Z,97379.28
2018-12-15T06:45:38.333Z,97384.13
2018-12-15T06:48:05.911Z,97382.64
2018-12-15T06:50:33.478Z,97388.55
2018-12-15T06:53:01.582Z,97396.69
2018-12-15T06:55:29.143Z,97391.03
2018-12-15T06:57:56.719Z,97392.48
2018-12-15T07:00:24.279Z,97383.13
2018-12-15T07:02:51.840Z,97397.73
2018-12-15T07:05:19.786Z,97393.09
2018-12-15T07:07:47.398Z,97394.36
2018-12-15T07:10:15.735Z,97389.84
2018-12-15T07:12:43.354Z,97390.64
2018-12-15T07:15:10.930Z,97392.63
2018-12-15T07:17:40.625Z,97380.70
2018-12-15T07:20:08.573Z,97388.21
2018-12-15T07:22:36.190Z,97391.67
2018-12-15T07:25:04.620Z,97390.76
2018-12-15T07:27:32.202Z,97389.81
2018-12-15T07:30:01.730Z,97392.13
2018-12-15T07:32:29.317Z,97396.72
2018-12-15T07:35:00.865Z,97398.69
2018-12-15T07:37:26.530Z,97398.94
2018-12-15T07:39:54.506Z,97396.61
2018-12-15T07:42:22.525Z,97399.72
2018-12-15T07:44:50.110Z,97402.11
2018-12-15T07:47:17.670Z,97398.99
2018-12-15T07:49:45.227Z,97404.75
2018-12-15T07:52:12.809Z,97404.20
2018-12-15T07:54:40.381Z,97409.70
2018-12-15T07:57:07.934Z,97408.55
2018-12-15T07:59:35.508Z,97404.71
2018-12-15T08:02:03.277Z,97410.77
2018-12-15T08:04:33.114Z,97407.33
2018-12-15T08:07:00.929Z,97408.66
2018-12-15T08:09:30.207Z,97402.89
2018-12-15T08:12:06.512Z,97405.05
2018-12-15T08:14:34.611Z,97407.08
2018-12-15T08:17:02.172Z,97415.41
2018-12-15T08:19:32.794Z,97411.62
2018-12-15T08:22:02.080Z,97418.13
2018-12-15T08:24:29.645Z,97416.61
2018-12-15T08:26:57.216Z,97419.19
2018-12-15T08:29:24.776Z,97421.52
2018-12-15T08:31:52.329Z,97420.95
2018-12-15T08:34:22.222Z,97422.08
2018-12-15T08:36:52.465Z,97425.21
2018-12-15T08:39:20.046Z,97418.98
2018-12-15T08:41:50.026Z,97418.58
2018-12-15T08:44:19.473Z,97424.84
2018-12-15T08:46:47.044Z,97424.66
2018-12-15T08:49:15.088Z,97428.89
2018-12-15T08:51:42.670Z,97423.95
2018-12-15T08:54:10.286Z,97424.34
2018-12-15T08:56:39.327Z,97418.64
2018-12-15T08:59:07.122Z,97420.05
2018-12-15T09:01:34.814Z,97414.67
2018-12-15T09:04:04.064Z,97411.92
2018-12-15T09:06:31.641Z,97417.73
2018-12-15T09:08:59.214Z,97418.22
2018-12-15T09:11:26.784Z,97425.45
2018-12-15T09:13:54.360Z,97427.58
2018-12-15T09:16:26.414Z,97422.86
2018-12-15T09:18:51.580Z,97430.05
2018-12-15T09:21:19.288Z,97426.41
2018-12-15T09:23:48.659Z,97431.97
2018-12-15T09:26:16.224Z,97432.87
2018-12-15T09:28:43.800Z,97432.72
2018-12-15T09:31:11.430Z,97429.38
2018-12-15T09:33:39.106Z,97428.61
2018-12-15T09:36:06.683Z,97426.64
2018-12-15T09:38:34.254Z,97429.27
2018-12-15T09:41:01.837Z,97428.55
2018-12-15T09:43:29.411Z,97428.12
2018-12-15T09:45:56.989Z,97416.95
2018-12-15T09:48:24.551Z,97412.78
2018-12-15T09:50:52.127Z,97410.86
2018-12-15T09:53:19.696Z,97417.93
2018-12-15T09:55:47.318Z,97408.67
2018-12-15T09:58:17.999Z,97411.66
2018-12-15T10:00:45.851Z,97406.09
2018-12-15T10:03:13.428Z,97406.70
2018-12-15T10:05:41.108Z,97402.60
2018-12-15T10:08:09.086Z,97400.64
2018-12-15T10:10:36.714Z,97401.61
2018-12-15T10:13:04.302Z,97401.30
2018-12-15T10:15:31.877Z,97399.55
2018-12-15T10:17:59.450Z,97398.64
2018-12-15T10:20:27.046Z,97400.29
2018-12-15T10:22:54.608Z,97397.32
2018-12-15T10:25:22.478Z,97391.50
2018-12-15T10:27:50.185Z,97394.19
2018-12-15T10:30:23.782Z,97390.48
2018-12-15T10:32:52.015Z,97384.38
2018-12-15T10:35:20.656Z,97379.55
2018-12-15T10:37:49.614Z,97377.11
2018-12-15T10:40:17.469Z,97382.45
2018-12-15T10:42:45.073Z,97376.05
2018-12-15T10:45:12.749Z,97372.11
2018-12-15T10:47:40.426Z,97369.74
2018-12-15T10:50:10.562Z,97361.94
2018-12-15T10:52:38.126Z,97365.67
2018-12-15T10:55:06.966Z,97365.15
2018-12-15T10:57:34.533Z,97366.31
2018-12-15T11:00:02.115Z,97366.61
2018-12-15T11:02:29.703Z,97365.59
2018-12-15T11:04:57.282Z,97371.09
2018-12-15T11:07:24.904Z,97369.06
2018-12-15T11:09:52.564Z,97358.73
2018-12-15T11:12:20.137Z,97365.16
2018-12-15T11:14:47.892Z,97367.57
2018-12-15T11:17:16.350Z,97358.72
2018-12-15T11:19:45.753Z,97362.91
2018-12-15T11:22:14.650Z,97357.98
2018-12-15T11:24:43.982Z,97346.98
2018-12-15T11:27:11.547Z,97347.42
2018-12-15T11:29:40.572Z,97346.94
2018-12-15T11:32:09.002Z,97343.51
2018-12-15T11:34:36.727Z,97344.97
2018-12-15T11:37:04.414Z,97345.45
2018-12-15T11:39:31.992Z,97341.95
2018-12-15T11:41:59.571Z,97336.78
2018-12-15T11:44:27.161Z,97335.74
2018-12-15T11:46:54.877Z,97330.55
2018-12-15T11:49:22.597Z,97326.61
2018-12-15T11:51:50.171Z,97325.53
2018-12-15T11:54:18.297Z,97323.67
2018-12-15T11:56:46.525Z,97323.94
2018-12-15T11:59:14.106Z,97317.33
2018-12-15T12:01:41.950Z,97318.89
2018-12-15T12:04:09.520Z,97306.33
2018-12-15T12:06:37.104Z,97307.80
2018-12-15T12:09:06.579Z,97307.43
2018-12-15T12:11:34.261Z,97308.92
2018-12-15T12:14:01.894Z,97306.64
2018-12-15T12:16:29.470Z,97300.30
2018-12-15T12:18:58.449Z,97299.05
2018-12-15T12:21:26.073Z,97302.84
2018-12-15T12:23:53.935Z,97297.94
2018-12-15T12:26:22.368Z,97296.14
2018-12-15T12:28:51.156Z,97298.17
2018-12-15T12:31:19.134Z,97292.27
2018-12-15T12:33:46.708Z,97289.59
2018-12-15T12:36:14.511Z,97291.69
2018-12-15T12:38:42.086Z,97299.12
2018-12-15T12:41:09.683Z,97305.23
2018-12-15T12:43:37.247Z,97311.48
2018-12-15T12:46:05.358Z,97313.67
2018-12-15T12:48:33.014Z,97310.33
2018-12-15T12:51:00.581Z,97305.58
2018-12-15T12:53:28.161Z,97304.21
2018-12-15T12:55:55.741Z,97307.20
2018-12-15T12:58:23.452Z,97304.74
2018-12-15T13:00:52.289Z,97302.28
2018-12-15T13:03:20.722Z,97299.66
2018-12-15T13:05:48.820Z,97296.77
2018-12-15T13:08:16.393Z,97300.22
2018-12-15T13:10:43.966Z,97299.22
2018-12-15T13:13:11.553Z,97300.42
2018-12-15T13:15:39.133Z,97301.95
2018-12-15T13:18:06.925Z,97305.55
2018-12-15T13:20:34.524Z,97304.41
2018-12-15T13:23:02.603Z,97297.99
2018-12-15T13:25:30.732Z,97298.23
2018-12-15T13:27:58.311Z,97299.02
2018-12-15T13:30:25.987Z,97292.11
2018-12-15T13:32:53.574Z,97291.00
2018-12-15T13:35:21.250Z,97285.44
2018-12-15T13:37:48.822Z,97273.70
2018-12-15T13:40:16.422Z,97274.89
2018-12-15T13:42:43.988Z,97288.74
2018-12-15T13:45:11.557Z,97289.45
2018-12-15T13:47:39.125Z,97285.44
2018-12-15T13:50:10.296Z,97291.59
2018-12-15T13:52:37.379Z,97297.25
2018-12-15T13:55:05.483Z,97294.05
2018-12-15T13:57:33.090Z,97288.70
2018-12-15T14:00:00.968Z,97290.57
2018-12-15T14:02:28.746Z,97297.42
2018-12-15T14:04:56.315Z,97294.97
2018-12-15T14:07:23.902Z,97289.39
2018-12-15T14:09:51.478Z,97288.11
2018-12-15T14:12:19.067Z,97293.71
2018-12-15T14:14:46.724Z,97293.78
2018-12-15T14:17:14.381Z,97296.80
2018-12-15T14:19:41.959Z,97291.69
2018-12-15T14:22:09.621Z,97294.22
2018-12-15T14:24:37.212Z,97295.71
2018-12-15T14:27:05.208Z,97286.70
2018-12-15T14:29:32.781Z,97282.77
2018-12-15T14:32:00.357Z,97276.75
2018-12-15T14:34:27.947Z,97279.58
2018-12-15T14:36:55.526Z,97275.86
2018-12-15T14:39:23.640Z,97287.13
2018-12-15T14:41:52.493Z,97286.39
2018-12-15T14:44:20.328Z,97285.90
2018-12-15T14:46:48.290Z,97280.61
2018-12-15T14:49:15.886Z,97270.89
2018-12-15T14:51:43.488Z,97275.66
2018-12-15T14:54:11.167Z,97279.11
2018-12-15T14:56:38.755Z,97271.63
2018-12-15T14:59:06.335Z,97276.45
2018-12-15T15:01:33.972Z,97279.20
2018-12-15T15:04:01.547Z,97280.40
2018-12-15T15:06:29.116Z,97273.28
2018-12-15T15:08:56.782Z,97271.53
2018-12-15T15:11:25.696Z,97273.33
2018-12-15T15:13:54.589Z,97276.91
2018-12-15T15:16:24.467Z,97272.68
2018-12-15T15:18:52.865Z,97272.69
2018-12-15T15:21:20.658Z,97266.67
2018-12-15T15:23:48.282Z,97276.39
2018-12-15T15:26:15.858Z,97279.30
2018-12-15T15:28:43.445Z,97270.80
2018-12-15T15:31:11.027Z,97265.69
2018-12-15T15:33:38.828Z,97268.08
2018-12-15T15:36:06.497Z,97264.33
2018-12-15T15:38:34.120Z,97263.38
2018-12-15T15:41:01.699Z,97265.16
2018-12-15T15:43:29.755Z,97269.48
2018-12-15T15:45:57.347Z,97259.65
2018-12-15T15:48:25.002Z,97261.36
2018-12-15T15:50:52.608Z,97260.03
2018-12-15T15:53:20.179Z,97256.93
2018-12-15T15:55:47.918Z,97248.51
2018-12-15T15:58:16.105Z,97253.34
2018-12-15T16:00:45.564Z,97254.98
2018-12-15T16:03:14.735Z,97260.94
2018-12-15T16:05:42.309Z,97249.84
2018-12-15T16:08:10.310Z,97249.55
2018-12-15T16:10:37.963Z,97240.44
2018-12-15T16:13:05.528Z,97239.61
2018-12-15T16:15:33.126Z,97243.40
2018-12-15T16:18:00.863Z,97245.19
2018-12-15T16:20:28.422Z,97240.21
2018-12-15T16:22:56.133Z,97230.39
2018-12-15T16:25:24.210Z,97225.36
2018-12-15T16:27:51.831Z,97223.58
2018-12-15T16:30:20.152Z,97224.46
2018-12-15T16:32:47.776Z,97223.50
2018-12-15T16:35:15.450Z,97220.59
2018-12-15T16:37:43.017Z,97228.30
2018-12-15T16:40:10.833Z,97226.33
2018-12-15T16:42:38.407Z,97226.63
2018-12-15T16:45:07.834Z,97232.70
2018-12-15T16:47:35.993Z,97225.72
2018-12-15T16:50:06.373Z,97224.84
2018-12-15T16:52:34.310Z,97226.91
2018-12-15T16:55:02.788Z,97216.64
2018-12-15T16:57:30.442Z,97225.59
2018-12-15T16:59:58.010Z,97223.95
2018-12-15T17:02:26.119Z,97224.44
2018-12-15T17:04:53.698Z,97215.24
2018-12-15T17:07:21.270Z,97214.64
2018-12-15T17:09:48.867Z,97216.83
2018-12-15T17:12:16.680Z,97218.98
2018-12-15T17:14:44.241Z,97220.13
2018-12-15T17:17:12.416Z,97216.50
2018-12-15T17:19:40.024Z,97214.42
2018-12-15T17:22:07.616Z,97208.58
2018-12-15T17:24:35.195Z,97208.98
2018-12-15T17:27:03.206Z,97216.04
2018-12-15T17:29:30.820Z,97215.84
2018-12-15T17:31:58.401Z,97210.41
2018-12-15T17:34:26.023Z,97201.22
2018-12-15T17:36:53.747Z,97202.02
2018-12-15T17:39:22.703Z,97203.30
2018-12-15T17:41:50.966Z,97203.45
2018-12-15T17:44:19.262Z,97197.70
2018-12-15T17:46:48.449Z,97203.80
2018-12-15T17:49:16.038Z,97193.77
2018-12-15T17:51:43.674Z,97194.28
2018-12-15T17:54:11.357Z,97195.97
2018-12-15T17:56:39.640Z,97195.06
2018-12-15T17:59:07.882Z,97192.59
2018-12-15T18:01:35.445Z,97187.77
2018-12-15T18:04:03.030Z,97176.77
2018-12-15T18:06:31.616Z,97171.19
2018-12-15T18:08:59.190Z,97175.92
2018-12-15T18:11:26.760Z,97169.42
2018-12-15T18:13:54.324Z,97164.53
2018-12-15T18:16:21.998Z,97160.70
2018-12-15T18:18:49.900Z,97155.97
2018-12-15T18:21:18.522Z,97153.75
2018-12-15T18:23:46.123Z,97151.44
2018-12-15T18:26:14.216Z,97154.22
2018-12-15T18:28:41.848Z,97153.10
2018-12-15T18:31:09.428Z,97150.77
2018-12-15T18:33:37.601Z,97139.98
2018-12-15T18:36:05.174Z,97145.72
2018-12-15T18:38:33.244Z,97141.16
2018-12-15T18:41:00.931Z,97138.98
2018-12-15T18:43:29.384Z,97137.78
2018-12-15T18:45:57.050Z,97139.38
2018-12-15T18:48:25.326Z,97128.56
2018-12-15T18:50:53.015Z,97119.44
2018-12-15T18:53:20.650Z,97117.56
2018-12-15T18:55:48.200Z,97111.73
2018-12-15T18:58:15.792Z,97110.77
2018-12-15T19:00:43.504Z,97102.81
2018-12-15T19:03:11.128Z,97095.66
2018-12-15T19:05:38.758Z,97088.75
2018-12-15T19:08:07.294Z,97083.77
2018-12-15T19:10:35.047Z,97080.94
2018-12-15T19:13:03.633Z,97078.12
2018-12-15T19:15:31.247Z,97067.70
2018-12-15T19:17:58.853Z,97065.64
2018-12-15T19:20:26.428Z,97054.00
2018-12-15T19:22:53.995Z,97055.77
2018-12-15T19:25:22.435Z,97051.29
2018-12-15T19:27:50.002Z,97050.08
2018-12-15T19:30:20.518Z,97039.25
2018-12-15T19:32:48.233Z,97036.08
2018-12-15T19:35:16.256Z,97030.42
2018-12-15T19:37:43.928Z,97023.70
2018-12-15T19:40:11.611Z,97021.08
2018-12-15T19:42:39.534Z,97015.19
2018-12-15T19:45:09.182Z,97010.95
2018-12-15T19:47:36.896Z,97005.56
2018-12-15T19:50:06.151Z,97008.28
2018-12-15T19:52:34.022Z,97009.02
2018-12-15T19:55:01.650Z,97010.94
2018-12-15T19:57:29.453Z,97006.72
2018-12-15T19:59:57.021Z,97008.63
2018-12-15T20:02:24.597Z,97007.70
2018-12-15T20:04:53.274Z,97009.00
2018-12-15T20:07:20.858Z,97006.48
2018-12-15T20:09:48.628Z,97005.87
2018-12-15T20:12:16.371Z,96997.08
2018-12-15T20:14:44.315Z,96988.12
2018-12-15T20:17:12.563Z,96988.88
2018-12-15T20:19:40.131Z,96985.41
2018-12-15T20:22:08.218Z,96967.20
2018-12-15T20:24:35.813Z,96967.16
2018-12-15T20:27:04.608Z,96969.67
2018-12-15T20:29:32.175Z,96969.72
2018-12-15T20:31:59.739Z,96965.03
2018-12-15T20:34:27.486Z,96965.78
2018-12-15T20:36:55.050Z,96961.59
2018-12-15T20:39:23.034Z,96955.31
2018-12-15T20:41:50.606Z,96951.66
2018-12-15T20:44:19.426Z,96954.36
2018-12-15T20:46:47.050Z,96953.11
2018-12-15T20:49:14.610Z,96952.53
2018-12-15T20:51:43.133Z,96944.65
2018-12-15T20:54:15.483Z,96942.28
2018-12-15T20:56:43.784Z,96942.33
2018-12-15T20:59:11.407Z,96929.00
2018-12-15T21:01:39.377Z,96937.84
2018-12-15T21:04:06.995Z,96928.73
2018-12-15T21:06:35.545Z,96922.56
2018-12-15T21:09:05.773Z,96916.59
2018-12-15T21:11:33.400Z,96918.48
2018-12-15T21:14:01.075Z,96907.36
2018-12-15T21:16:29.931Z,96908.63
2018-12-15T21:18:58.520Z,96905.25
2018-12-15T21:21:26.110Z,96902.58
2018-12-15T21:23:53.723Z,96895.03
2018-12-15T21:26:21.969Z,96899.30
2018-12-15T21:28:49.897Z,96900.25
2018-12-15T21:31:17.487Z,96898.23
2018-12-15T21:33:45.044Z,96896.22
2018-12-15T21:36:12.674Z,96890.73
2018-12-15T21:38:40.242Z,96889.10
2018-12-15T21:41:07.813Z,96894.93
2018-12-15T21:43:35.381Z,96884.77
2018-12-15T21:46:02.940Z,96879.31
2018-12-15T21:48:30.507Z,96875.20
2018-12-15T21:50:58.581Z,96874.30
2018-12-15T21:53:26.191Z,96880.61
2018-12-15T21:55:55.021Z,96875.28
2018-12-15T21:58:23.091Z,96873.41
2018-12-15T22:00:50.873Z,96866.67
2018-12-15T22:09:05.338Z,96851.80
2018-12-15T22:11:32.928Z,96844.22
2018-12-15T22:14:03.214Z,96838.44
2018-12-15T22:16:31.768Z,96825.99
2018-12-15T22:18:59.603Z,96814.64
2018-12-15T22:21:28.196Z,96808.97
2018-12-15T22:23:56.002Z,96805.85
2018-12-15T22:26:23.657Z,96805.51
2018-12-15T22:28:51.230Z,96807.00
2018-12-15T22:31:18.790Z,96809.55
2018-12-15T22:33:47.077Z,96796.16
2018-12-15T22:36:16.176Z,96795.35
2018-12-15T22:38:45.161Z,96779.58
2018-12-15T22:41:13.156Z,96760.53
2018-12-15T22:43:40.744Z,96763.20
2018-12-15T22:46:08.332Z,96765.20
2018-12-15T22:48:35.979Z,96755.46
2018-12-15T22:51:03.543Z,96760.53
2018-12-15T22:53:31.095Z,96752.24
2018-12-15T22:55:58.670Z,96747.81
2018-12-15T22:58:26.239Z,96747.84
2018-12-15T23:01:01.263Z,96739.78
2018-12-15T23:03:29.750Z,96736.77
2018-12-15T23:05:58.170Z,96730.59
2018-12-15T23:08:25.732Z,96732.80
2018-12-15T23:10:53.286Z,96722.28
2018-12-15T23:13:20.851Z,96717.58
2018-12-15T23:15:48.422Z,96712.39
2018-12-15T23:18:15.997Z,96714.28
2018-12-15T23:20:43.565Z,96703.41
2018-12-15T23:23:11.131Z,96688.30
2018-12-15T23:25:38.746Z,96676.71
2018-12-15T23:28:06.296Z,96670.09
2018-12-15T23:30:33.863Z,96677.94
2018-12-15T23:33:02.210Z,96676.11
2018-12-15T23:35:32.541Z,96675.56
2018-12-15T23:38:00.370Z,96664.14
2018-12-15T23:40:27.981Z,96660.34
2018-12-15T23:42:55.620Z,96657.19
2018-12-15T23:45:23.186Z,96656.89
2018-12-15T23:47:50.748Z,96657.02
2018-12-15T23:50:18.344Z,96641.57
2018-12-15T23:52:45.958Z,96642.27
2018-12-15T23:55:13.522Z,96642.91
2018-12-15T23:57:41.083Z,96648.45
